createdAt,value
2023-09-27T00:00:06.589Z,22.78
2023-09-27T00:00:17.568Z,22.78
2023-09-27T00:00:28.603Z,22.79
2023-09-27T00:00:40.588Z,22.79
2023-09-27T00:00:51.580Z,22.78
2023-09-27T00:01:02.574Z,22.79
2023-09-27T00:01:13.636Z,22.77
2023-09-27T00:01:24.602Z,22.78
2023-09-27T00:01:35.586Z,22.79
2023-09-27T00:01:46.648Z,22.77
2023-09-27T00:01:57.699Z,22.78
2023-09-27T00:02:08.598Z,22.78
2023-09-27T00:02:19.720Z,22.78
2023-09-27T00:02:31.670Z,22.78
2023-09-27T00:02:43.707Z,22.77
2023-09-27T00:02:54.653Z,22.77
2023-09-27T00:03:06.611Z,22.77
2023-09-27T00:03:17.694Z,22.77
2023-09-27T00:03:28.612Z,22.77
2023-09-27T00:03:39.584Z,22.78
2023-09-27T00:03:51.581Z,22.77
2023-09-27T00:04:03.577Z,22.78
2023-09-27T00:04:15.594Z,22.78
2023-09-27T00:04:27.586Z,22.78
2023-09-27T00:04:39.648Z,22.77
2023-09-27T00:04:50.650Z,22.78
2023-09-27T00:05:02.708Z,22.78
2023-09-27T00:05:13.743Z,22.78
2023-09-27T00:05:24.641Z,22.77
2023-09-27T00:05:35.661Z,22.78
2023-09-27T00:05:47.732Z,22.77
2023-09-27T00:05:59.683Z,22.77
2023-09-27T00:06:10.603Z,22.77
2023-09-27T00:06:21.577Z,22.77
2023-09-27T00:06:32.585Z,22.78
2023-09-27T00:06:43.573Z,22.76
2023-09-27T00:06:55.561Z,22.77
2023-09-27T00:07:06.612Z,22.79
2023-09-27T00:07:18.621Z,22.77
2023-09-27T00:07:30.614Z,22.79
2023-09-27T00:07:42.722Z,22.79
2023-09-27T00:07:53.622Z,22.79
2023-09-27T00:08:05.658Z,22.79
2023-09-27T00:08:16.580Z,22.77
2023-09-27T00:08:27.624Z,22.78
2023-09-27T00:08:39.572Z,22.78
2023-09-27T00:08:50.562Z,22.78
2023-09-27T00:09:01.582Z,22.78
2023-09-27T00:09:13.571Z,22.78
2023-09-27T00:09:24.565Z,22.78
2023-09-27T00:09:35.548Z,22.78
2023-09-27T00:09:46.560Z,22.78
2023-09-27T00:09:57.563Z,22.79
2023-09-27T00:10:08.556Z,22.78
2023-09-27T00:10:19.528Z,22.78
2023-09-27T00:10:30.544Z,22.77
2023-09-27T00:10:41.630Z,22.78
2023-09-27T00:10:53.612Z,22.77
2023-09-27T00:11:05.636Z,22.76
2023-09-27T00:11:16.608Z,22.77
2023-09-27T00:11:27.680Z,22.78
2023-09-27T00:11:39.541Z,22.77
2023-09-27T00:11:50.636Z,22.78
2023-09-27T00:12:01.599Z,22.77
2023-09-27T00:12:13.578Z,22.77
2023-09-27T00:12:24.572Z,22.77
2023-09-27T00:12:35.576Z,22.76
2023-09-27T00:12:46.587Z,22.77
2023-09-27T00:12:58.585Z,22.77
2023-09-27T00:13:09.570Z,22.76
2023-09-27T00:13:20.566Z,22.77
2023-09-27T00:13:31.560Z,22.78
2023-09-27T00:13:42.575Z,22.78
2023-09-27T00:13:53.604Z,22.78
2023-09-27T00:14:05.576Z,22.77
2023-09-27T00:14:17.625Z,22.77
2023-09-27T00:14:28.651Z,22.77
2023-09-27T00:14:40.619Z,22.78
2023-09-27T00:14:52.568Z,22.77
2023-09-27T00:15:03.560Z,22.77
2023-09-27T00:15:14.591Z,22.77
2023-09-27T00:15:26.573Z,22.78
2023-09-27T00:15:37.579Z,22.76
2023-09-27T00:15:48.581Z,22.76
2023-09-27T00:15:59.610Z,22.76
2023-09-27T00:16:10.603Z,22.77
2023-09-27T00:16:22.632Z,22.75
2023-09-27T00:16:34.601Z,22.78
2023-09-27T00:16:45.616Z,22.77
2023-09-27T00:16:57.654Z,22.76
2023-09-27T00:17:08.590Z,22.76
2023-09-27T00:17:20.585Z,22.76
2023-09-27T00:17:32.658Z,22.77
2023-09-27T00:17:44.674Z,22.76
2023-09-27T00:17:55.744Z,22.76
2023-09-27T00:18:07.564Z,22.76
2023-09-27T00:18:18.636Z,22.75
2023-09-27T00:18:29.574Z,22.75
2023-09-27T00:18:40.562Z,22.77
2023-09-27T00:18:51.553Z,22.76
2023-09-27T00:19:02.538Z,22.76
2023-09-27T00:19:13.527Z,22.76
2023-09-27T00:19:24.634Z,22.77
2023-09-27T00:19:36.599Z,22.77
2023-09-27T00:19:48.568Z,22.78
2023-09-27T00:19:59.553Z,22.78
2023-09-27T00:20:10.607Z,22.77
2023-09-27T00:20:21.586Z,22.76
2023-09-27T00:20:32.607Z,22.77
2023-09-27T00:20:43.630Z,22.76
2023-09-27T00:20:55.599Z,22.76
2023-09-27T00:21:07.558Z,22.76
2023-09-27T00:21:18.556Z,22.76
2023-09-27T00:21:29.565Z,22.77
2023-09-27T00:21:40.570Z,22.77
2023-09-27T00:21:51.548Z,22.76
2023-09-27T00:22:02.561Z,22.76
2023-09-27T00:22:13.578Z,22.76
2023-09-27T00:22:24.580Z,22.76
2023-09-27T00:22:35.581Z,22.76
2023-09-27T00:22:47.616Z,22.77
2023-09-27T00:22:58.606Z,22.76
2023-09-27T00:23:09.584Z,22.76
2023-09-27T00:23:21.624Z,22.76
2023-09-27T00:23:32.677Z,22.76
2023-09-27T00:23:44.561Z,22.77
2023-09-27T00:23:55.548Z,22.76
2023-09-27T00:24:06.562Z,22.78
2023-09-27T00:24:17.586Z,22.77
2023-09-27T00:24:28.604Z,22.77
2023-09-27T00:24:40.603Z,22.78
2023-09-27T00:24:52.562Z,22.77
2023-09-27T00:25:03.562Z,22.77
2023-09-27T00:25:14.538Z,22.76
2023-09-27T00:25:25.555Z,22.78
2023-09-27T00:25:36.571Z,22.77
2023-09-27T00:25:47.550Z,22.76
2023-09-27T00:25:58.644Z,22.77
2023-09-27T00:26:09.615Z,22.77
2023-09-27T00:26:21.611Z,22.77
2023-09-27T00:26:33.574Z,22.77
2023-09-27T00:26:44.570Z,22.76
2023-09-27T00:26:55.563Z,22.78
2023-09-27T00:27:06.564Z,22.78
2023-09-27T00:27:17.563Z,22.77
2023-09-27T00:27:28.545Z,22.77
2023-09-27T00:27:39.569Z,22.77
2023-09-27T00:27:50.559Z,22.76
2023-09-27T00:28:01.558Z,22.76
2023-09-27T00:28:12.553Z,22.78
2023-09-27T00:28:23.560Z,22.77
2023-09-27T00:28:34.534Z,22.75
2023-09-27T00:28:45.625Z,22.76
2023-09-27T00:28:57.607Z,22.76
2023-09-27T00:29:09.620Z,22.75
2023-09-27T00:29:21.588Z,22.76
2023-09-27T00:29:32.643Z,22.75
2023-09-27T00:29:43.530Z,22.76
2023-09-27T00:29:54.538Z,22.76
2023-09-27T00:30:05.624Z,22.76
2023-09-27T00:30:17.693Z,22.75
2023-09-27T00:30:28.604Z,22.75
2023-09-27T00:30:40.562Z,22.75
2023-09-27T00:30:51.571Z,22.74
2023-09-27T00:31:02.560Z,22.75
2023-09-27T00:31:13.594Z,22.74
2023-09-27T00:31:25.631Z,22.75
2023-09-27T00:31:37.593Z,22.74
2023-09-27T00:31:49.624Z,22.74
2023-09-27T00:32:00.687Z,22.74
2023-09-27T00:32:11.616Z,22.75
2023-09-27T00:32:22.576Z,22.74
2023-09-27T00:32:33.734Z,22.74
2023-09-27T00:32:45.792Z,22.72
2023-09-27T00:32:57.675Z,22.72
2023-09-27T00:33:09.656Z,22.72
2023-09-27T00:33:20.662Z,22.72
2023-09-27T00:33:32.749Z,22.73
2023-09-27T00:33:44.577Z,22.72
2023-09-27T00:33:55.576Z,22.73
2023-09-27T00:34:06.569Z,22.70
2023-09-27T00:34:17.558Z,22.71
2023-09-27T00:34:28.619Z,22.71
2023-09-27T00:34:40.572Z,22.72
2023-09-27T00:34:51.611Z,22.71
2023-09-27T00:35:04.666Z,22.70
2023-09-27T00:35:15.739Z,22.70
2023-09-27T00:35:27.640Z,22.71
2023-09-27T00:35:39.610Z,22.71
2023-09-27T00:35:50.646Z,22.71
2023-09-27T00:36:02.623Z,22.71
2023-09-27T00:36:14.612Z,22.71
2023-09-27T00:36:26.598Z,22.71
2023-09-27T00:36:37.601Z,22.70
2023-09-27T00:36:49.565Z,22.71
2023-09-27T00:37:00.563Z,22.71
2023-09-27T00:37:11.550Z,22.70
2023-09-27T00:37:22.543Z,22.70
2023-09-27T00:37:33.626Z,22.72
2023-09-27T00:37:45.605Z,22.71
2023-09-27T00:37:57.587Z,22.71
2023-09-27T00:38:08.608Z,22.71
2023-09-27T00:38:19.615Z,22.70
2023-09-27T00:38:30.649Z,22.72
2023-09-27T00:38:42.615Z,22.71
2023-09-27T00:38:54.731Z,22.72
2023-09-27T00:39:06.566Z,22.72
2023-09-27T00:39:17.552Z,22.72
2023-09-27T00:39:28.535Z,22.72
2023-09-27T00:39:39.619Z,22.72
2023-09-27T00:39:51.617Z,22.72
2023-09-27T00:40:03.584Z,22.73
2023-09-27T00:40:14.599Z,22.73
2023-09-27T00:40:25.593Z,22.73
2023-09-27T00:40:37.598Z,22.73
2023-09-27T00:40:49.582Z,22.73
2023-09-27T00:41:00.552Z,22.73
2023-09-27T00:41:11.618Z,22.71
2023-09-27T00:41:22.553Z,22.74
2023-09-27T00:41:33.574Z,22.73
2023-09-27T00:41:45.580Z,22.73
2023-09-27T00:41:56.592Z,22.73
2023-09-27T00:42:07.587Z,22.74
2023-09-27T00:42:18.581Z,22.73
2023-09-27T00:42:29.607Z,22.74
2023-09-27T00:42:40.594Z,22.75
2023-09-27T00:42:52.587Z,22.74
2023-09-27T00:43:03.580Z,22.75
2023-09-27T00:43:14.568Z,22.75
2023-09-27T00:43:25.569Z,22.75
2023-09-27T00:43:36.576Z,22.75
2023-09-27T00:43:47.571Z,22.74
2023-09-27T00:43:58.581Z,22.73
2023-09-27T00:44:09.639Z,22.74
2023-09-27T00:44:21.603Z,22.73
2023-09-27T00:44:32.605Z,22.73
2023-09-27T00:44:44.593Z,22.73
2023-09-27T00:44:55.579Z,22.73
2023-09-27T00:45:06.564Z,22.73
2023-09-27T00:45:17.559Z,22.73
2023-09-27T00:45:28.541Z,22.73
2023-09-27T00:45:39.557Z,22.73
2023-09-27T00:45:50.582Z,22.74
2023-09-27T00:46:01.658Z,22.74
2023-09-27T00:46:12.663Z,22.74
2023-09-27T00:46:23.605Z,22.74
2023-09-27T00:46:34.593Z,22.75
2023-09-27T00:46:45.621Z,22.75
2023-09-27T00:46:57.613Z,22.75
2023-09-27T00:47:09.598Z,22.75
2023-09-27T00:47:21.614Z,22.74
2023-09-27T00:47:32.595Z,22.74
2023-09-27T00:47:44.569Z,22.75
2023-09-27T00:47:55.584Z,22.74
2023-09-27T00:48:06.612Z,22.74
2023-09-27T00:48:18.655Z,22.74
2023-09-27T00:48:30.638Z,22.73
2023-09-27T00:48:41.574Z,22.74
2023-09-27T00:48:52.744Z,22.74
2023-09-27T00:49:03.602Z,22.72
2023-09-27T00:49:15.565Z,22.73
2023-09-27T00:49:26.563Z,22.73
2023-09-27T00:49:37.566Z,22.75
2023-09-27T00:49:48.586Z,22.72
2023-09-27T00:49:59.621Z,22.72
2023-09-27T00:50:10.769Z,22.73
2023-09-27T00:50:21.681Z,22.73
2023-09-27T00:50:33.889Z,22.74
2023-09-27T00:50:45.560Z,22.72
2023-09-27T00:50:56.559Z,22.73
2023-09-27T00:51:07.549Z,22.72
2023-09-27T00:51:18.544Z,22.72
2023-09-27T00:51:29.587Z,22.71
2023-09-27T00:51:40.573Z,22.71
2023-09-27T00:51:52.600Z,22.72
2023-09-27T00:52:03.585Z,22.71
2023-09-27T00:52:15.601Z,22.71
2023-09-27T00:52:26.597Z,22.72
2023-09-27T00:52:38.561Z,22.71
2023-09-27T00:52:49.672Z,22.72
2023-09-27T00:53:00.670Z,22.72
2023-09-27T00:53:11.625Z,22.71
2023-09-27T00:53:23.768Z,22.72
2023-09-27T00:53:34.584Z,22.72
2023-09-27T00:53:45.591Z,22.71
2023-09-27T00:53:56.588Z,22.73
2023-09-27T00:54:07.568Z,22.71
2023-09-27T00:54:18.556Z,22.73
2023-09-27T00:54:29.582Z,22.71
2023-09-27T00:54:40.576Z,22.72
2023-09-27T00:54:51.586Z,22.73
2023-09-27T00:55:02.602Z,22.72
2023-09-27T00:55:14.575Z,22.71
2023-09-27T00:55:25.590Z,22.71
2023-09-27T00:55:36.591Z,22.71
2023-09-27T00:55:47.571Z,22.71
2023-09-27T00:55:58.596Z,22.71
2023-09-27T00:56:10.656Z,22.72
2023-09-27T00:56:21.594Z,22.71
2023-09-27T00:56:33.599Z,22.71
2023-09-27T00:56:44.586Z,22.71
2023-09-27T00:56:55.584Z,22.72
2023-09-27T00:57:06.601Z,22.72
2023-09-27T00:57:18.558Z,22.72
2023-09-27T00:57:29.553Z,22.71
2023-09-27T00:57:40.562Z,22.73
2023-09-27T00:57:51.599Z,22.72
2023-09-27T00:58:02.584Z,22.73
2023-09-27T00:58:13.578Z,22.73
2023-09-27T00:58:24.568Z,22.73
2023-09-27T00:58:35.564Z,22.73
2023-09-27T00:58:46.567Z,22.72
2023-09-27T00:58:58.603Z,22.72
2023-09-27T00:59:09.560Z,22.72
2023-09-27T00:59:20.635Z,22.72
2023-09-27T00:59:31.588Z,22.72
2023-09-27T00:59:42.552Z,22.71
2023-09-27T00:59:53.573Z,22.73
2023-09-27T01:00:04.539Z,22.73
2023-09-27T01:00:15.573Z,22.71
2023-09-27T01:00:26.557Z,22.71
2023-09-27T01:00:37.587Z,22.72
2023-09-27T01:00:49.598Z,22.71
2023-09-27T01:01:01.592Z,22.72
2023-09-27T01:01:13.601Z,22.71
2023-09-27T01:01:24.609Z,22.72
2023-09-27T01:01:36.656Z,22.72
2023-09-27T01:01:47.566Z,22.71
2023-09-27T01:01:58.673Z,22.70
2023-09-27T01:02:09.660Z,22.71
2023-09-27T01:02:21.638Z,22.70
2023-09-27T01:02:32.669Z,22.70
2023-09-27T01:02:43.693Z,22.71
2023-09-27T01:02:55.643Z,22.72
2023-09-27T01:03:06.636Z,22.71
2023-09-27T01:03:18.621Z,22.72
2023-09-27T01:03:29.623Z,22.71
2023-09-27T01:03:40.579Z,22.72
2023-09-27T01:03:51.573Z,22.72
2023-09-27T01:04:02.568Z,22.72
2023-09-27T01:04:13.573Z,22.71
2023-09-27T01:04:24.567Z,22.71
2023-09-27T01:04:35.548Z,22.72
2023-09-27T01:04:46.543Z,22.71
2023-09-27T01:04:57.580Z,22.71
2023-09-27T01:05:09.637Z,22.71
2023-09-27T01:05:20.701Z,22.72
2023-09-27T01:05:31.637Z,22.72
2023-09-27T01:05:43.734Z,22.71
2023-09-27T01:05:55.641Z,22.72
2023-09-27T01:06:06.663Z,22.72
2023-09-27T01:06:18.619Z,22.71
2023-09-27T01:06:29.534Z,22.72
2023-09-27T01:06:40.633Z,22.72
2023-09-27T01:06:52.581Z,22.73
2023-09-27T01:07:04.562Z,22.72
2023-09-27T01:07:15.541Z,22.72
2023-09-27T01:07:26.562Z,22.72
2023-09-27T01:07:37.602Z,22.71
2023-09-27T01:07:48.586Z,22.72
2023-09-27T01:08:00.631Z,22.72
2023-09-27T01:08:12.615Z,22.71
2023-09-27T01:08:24.616Z,22.71
2023-09-27T01:08:35.587Z,22.73
2023-09-27T01:08:46.595Z,22.73
2023-09-27T01:08:57.587Z,22.73
2023-09-27T01:09:08.585Z,22.72
2023-09-27T01:09:19.568Z,22.73
2023-09-27T01:09:30.562Z,22.72
2023-09-27T01:09:41.554Z,22.73
2023-09-27T01:09:52.545Z,22.71
2023-09-27T01:10:03.546Z,22.73
2023-09-27T01:10:14.636Z,22.73
2023-09-27T01:10:26.586Z,22.72
2023-09-27T01:10:37.593Z,22.72
2023-09-27T01:10:48.571Z,22.74
2023-09-27T01:11:00.598Z,22.72
2023-09-27T01:11:11.603Z,22.73
2023-09-27T01:11:23.627Z,22.73
2023-09-27T01:11:34.588Z,22.72
2023-09-27T01:11:46.564Z,22.73
2023-09-27T01:11:57.547Z,22.73
2023-09-27T01:12:08.623Z,22.73
2023-09-27T01:12:20.568Z,22.73
2023-09-27T01:12:31.601Z,22.71
2023-09-27T01:12:43.658Z,22.73
2023-09-27T01:12:54.608Z,22.72
2023-09-27T01:13:05.678Z,22.72
2023-09-27T01:13:17.611Z,22.72
2023-09-27T01:13:28.547Z,22.72
2023-09-27T01:13:39.571Z,22.72
2023-09-27T01:13:50.602Z,22.74
2023-09-27T01:14:01.561Z,22.72
2023-09-27T01:14:13.575Z,22.74
2023-09-27T01:14:25.621Z,22.73
2023-09-27T01:14:37.606Z,22.75
2023-09-27T01:14:49.578Z,22.73
2023-09-27T01:15:00.590Z,22.73
2023-09-27T01:15:12.602Z,22.73
2023-09-27T01:15:24.567Z,22.72
2023-09-27T01:15:35.577Z,22.73
2023-09-27T01:15:46.639Z,22.71
2023-09-27T01:15:58.624Z,22.72
2023-09-27T01:16:10.629Z,22.72
2023-09-27T01:16:22.735Z,22.73
2023-09-27T01:16:34.638Z,22.73
2023-09-27T01:16:46.623Z,22.73
2023-09-27T01:16:58.618Z,22.71
2023-09-27T01:17:09.596Z,22.73
2023-09-27T01:17:20.659Z,22.72
2023-09-27T01:17:31.718Z,22.72
2023-09-27T01:17:42.705Z,22.73
2023-09-27T01:17:54.639Z,22.74
2023-09-27T01:18:06.648Z,22.72
2023-09-27T01:18:17.571Z,22.71
2023-09-27T01:18:28.576Z,22.72
2023-09-27T01:18:39.624Z,22.71
2023-09-27T01:18:50.632Z,22.72
2023-09-27T01:19:02.570Z,22.73
2023-09-27T01:19:14.583Z,22.73
2023-09-27T01:19:25.550Z,22.72
2023-09-27T01:19:36.561Z,22.73
2023-09-27T01:19:47.567Z,22.72
2023-09-27T01:19:58.609Z,22.71
2023-09-27T01:20:09.595Z,22.72
2023-09-27T01:20:20.611Z,22.71
2023-09-27T01:20:31.577Z,22.72
2023-09-27T01:20:42.571Z,22.73
2023-09-27T01:20:53.575Z,22.72
2023-09-27T01:21:04.575Z,22.73
2023-09-27T01:21:15.574Z,22.74
2023-09-27T01:21:26.562Z,22.73
2023-09-27T01:21:37.548Z,22.71
2023-09-27T01:21:48.539Z,22.72
2023-09-27T01:21:59.541Z,22.72
2023-09-27T01:22:10.570Z,22.72
2023-09-27T01:22:21.590Z,22.73
2023-09-27T01:22:32.582Z,22.72
2023-09-27T01:22:43.605Z,22.72
2023-09-27T01:22:55.640Z,22.72
2023-09-27T01:23:06.620Z,22.71
2023-09-27T01:23:17.627Z,22.71
2023-09-27T01:23:29.736Z,22.72
2023-09-27T01:23:41.605Z,22.71
2023-09-27T01:23:53.562Z,22.72
2023-09-27T01:24:04.554Z,22.71
2023-09-27T01:24:15.629Z,22.72
2023-09-27T01:24:27.586Z,22.72
2023-09-27T01:24:38.585Z,22.72
2023-09-27T01:24:49.585Z,22.73
2023-09-27T01:25:00.599Z,22.72
2023-09-27T01:25:12.566Z,22.72
2023-09-27T01:25:23.561Z,22.73
2023-09-27T01:25:34.548Z,22.72
2023-09-27T01:25:45.547Z,22.71
2023-09-27T01:25:56.572Z,22.72
2023-09-27T01:26:07.667Z,22.70
2023-09-27T01:26:18.588Z,22.69
2023-09-27T01:26:30.582Z,22.71
2023-09-27T01:26:41.575Z,22.70
2023-09-27T01:26:52.569Z,22.70
2023-09-27T01:27:03.552Z,22.69
2023-09-27T01:27:15.566Z,22.70
2023-09-27T01:27:26.569Z,22.68
2023-09-27T01:27:37.551Z,22.70
2023-09-27T01:27:48.554Z,22.69
2023-09-27T01:27:59.535Z,22.69
2023-09-27T01:28:10.629Z,22.70
2023-09-27T01:28:22.603Z,22.70
2023-09-27T01:28:34.568Z,22.70
2023-09-27T01:28:45.547Z,22.70
2023-09-27T01:28:56.761Z,22.70
2023-09-27T01:29:07.621Z,22.68
2023-09-27T01:29:19.622Z,22.69
2023-09-27T01:29:31.614Z,22.68
2023-09-27T01:29:42.548Z,22.69
2023-09-27T01:29:53.539Z,22.68
2023-09-27T01:30:04.643Z,22.68
2023-09-27T01:30:16.602Z,22.69
2023-09-27T01:30:28.612Z,22.69
2023-09-27T01:30:40.592Z,22.68
2023-09-27T01:30:51.597Z,22.68
2023-09-27T01:31:03.569Z,22.69
2023-09-27T01:31:14.650Z,22.68
2023-09-27T01:31:25.654Z,22.69
2023-09-27T01:31:36.622Z,22.69
2023-09-27T01:31:47.584Z,22.68
2023-09-27T01:31:59.661Z,22.70
2023-09-27T01:32:11.587Z,22.70
2023-09-27T01:32:23.594Z,22.68
2023-09-27T01:32:35.622Z,22.69
2023-09-27T01:32:46.662Z,22.69
2023-09-27T01:32:57.613Z,22.70
2023-09-27T01:33:08.663Z,22.68
2023-09-27T01:33:20.623Z,22.69
2023-09-27T01:33:31.537Z,22.69
2023-09-27T01:33:42.534Z,22.68
2023-09-27T01:33:53.561Z,22.68
2023-09-27T01:34:04.573Z,22.68
2023-09-27T01:34:15.567Z,22.67
2023-09-27T01:34:26.585Z,22.67
2023-09-27T01:34:37.573Z,22.67
2023-09-27T01:34:48.579Z,22.67
2023-09-27T01:34:59.597Z,22.69
2023-09-27T01:35:11.636Z,22.67
2023-09-27T01:35:22.604Z,22.67
2023-09-27T01:35:34.603Z,22.68
2023-09-27T01:35:45.559Z,22.68
2023-09-27T01:35:56.569Z,22.67
2023-09-27T01:36:07.557Z,22.67
2023-09-27T01:36:18.543Z,22.67
2023-09-27T01:36:29.655Z,22.67
2023-09-27T01:36:41.565Z,22.66
2023-09-27T01:36:52.549Z,22.67
2023-09-27T01:37:03.626Z,22.68
2023-09-27T01:37:15.599Z,22.67
2023-09-27T01:37:26.577Z,22.68
2023-09-27T01:37:37.565Z,22.69
2023-09-27T01:37:48.549Z,22.68
2023-09-27T01:37:59.626Z,22.68
2023-09-27T01:38:10.675Z,22.68
2023-09-27T01:38:21.713Z,22.68
2023-09-27T01:38:33.608Z,22.67
2023-09-27T01:38:45.576Z,22.68
2023-09-27T01:38:56.585Z,22.68
2023-09-27T01:39:07.574Z,22.67
2023-09-27T01:39:18.543Z,22.68
2023-09-27T01:39:30.567Z,22.67
2023-09-27T01:39:41.548Z,22.66
2023-09-27T01:39:52.554Z,22.67
2023-09-27T01:40:03.561Z,22.67
2023-09-27T01:40:14.565Z,22.68
2023-09-27T01:40:25.568Z,22.68
2023-09-27T01:40:36.571Z,22.69
2023-09-27T01:40:47.588Z,22.68
2023-09-27T01:40:58.623Z,22.67
2023-09-27T01:41:09.551Z,22.68
2023-09-27T01:41:20.642Z,22.68
2023-09-27T01:41:31.607Z,22.70
2023-09-27T01:41:42.561Z,22.69
2023-09-27T01:41:53.565Z,22.67
2023-09-27T01:42:04.558Z,22.68
2023-09-27T01:42:15.523Z,22.68
2023-09-27T01:42:26.533Z,22.69
2023-09-27T01:42:37.629Z,22.68
2023-09-27T01:42:49.588Z,22.69
2023-09-27T01:43:00.589Z,22.69
2023-09-27T01:43:11.585Z,22.68
2023-09-27T01:43:22.572Z,22.68
2023-09-27T01:43:33.567Z,22.69
2023-09-27T01:43:44.565Z,22.68
2023-09-27T01:43:55.601Z,22.69
2023-09-27T01:44:07.612Z,22.68
2023-09-27T01:44:18.569Z,22.69
2023-09-27T01:44:29.594Z,22.68
2023-09-27T01:44:41.580Z,22.69
2023-09-27T01:44:52.566Z,22.70
2023-09-27T01:45:03.566Z,22.68
2023-09-27T01:45:14.568Z,22.68
2023-09-27T01:45:25.570Z,22.69
2023-09-27T01:45:36.683Z,22.69
2023-09-27T01:45:47.666Z,22.70
2023-09-27T01:45:58.619Z,22.69
2023-09-27T01:46:09.698Z,22.69
2023-09-27T01:46:20.604Z,22.69
2023-09-27T01:46:32.568Z,22.70
2023-09-27T01:46:43.553Z,22.69
2023-09-27T01:46:54.575Z,22.69
2023-09-27T01:47:05.604Z,22.70
2023-09-27T01:47:17.663Z,22.69
2023-09-27T01:47:28.619Z,22.68
2023-09-27T01:47:39.701Z,22.71
2023-09-27T01:47:51.582Z,22.70
2023-09-27T01:48:03.615Z,22.70
2023-09-27T01:48:15.623Z,22.69
2023-09-27T01:48:27.593Z,22.69
2023-09-27T01:48:38.580Z,22.69
2023-09-27T01:48:49.589Z,22.68
2023-09-27T01:49:00.579Z,22.69
2023-09-27T01:49:11.572Z,22.69
2023-09-27T01:49:22.551Z,22.68
2023-09-27T01:49:33.632Z,22.69
2023-09-27T01:49:45.575Z,22.69
2023-09-27T01:49:56.609Z,22.69
2023-09-27T01:50:07.599Z,22.67
2023-09-27T01:50:18.647Z,22.67
2023-09-27T01:50:30.635Z,22.67
2023-09-27T01:50:42.595Z,22.68
2023-09-27T01:50:53.588Z,22.69
2023-09-27T01:51:04.582Z,22.67
2023-09-27T01:51:15.572Z,22.68
2023-09-27T01:51:26.578Z,22.66
2023-09-27T01:51:38.594Z,22.67
2023-09-27T01:51:50.577Z,22.67
2023-09-27T01:52:01.591Z,22.68
2023-09-27T01:52:12.587Z,22.66
2023-09-27T01:52:23.583Z,22.67
2023-09-27T01:52:34.562Z,22.67
2023-09-27T01:52:46.572Z,22.66
2023-09-27T01:52:57.573Z,22.66
2023-09-27T01:53:09.628Z,22.66
2023-09-27T01:53:20.570Z,22.67
2023-09-27T01:53:31.634Z,22.65
2023-09-27T01:53:42.577Z,22.64
2023-09-27T01:53:53.576Z,22.65
2023-09-27T01:54:04.580Z,22.65
2023-09-27T01:54:15.566Z,22.64
2023-09-27T01:54:26.549Z,22.64
2023-09-27T01:54:37.579Z,22.63
2023-09-27T01:54:49.574Z,22.64
2023-09-27T01:55:00.585Z,22.64
2023-09-27T01:55:11.586Z,22.64
2023-09-27T01:55:22.578Z,22.64
2023-09-27T01:55:33.579Z,22.65
2023-09-27T01:55:44.586Z,22.65
2023-09-27T01:55:56.581Z,22.64
2023-09-27T01:56:07.623Z,22.65
2023-09-27T01:56:19.614Z,22.65
2023-09-27T01:56:31.587Z,22.65
2023-09-27T01:56:43.581Z,22.64
2023-09-27T01:56:55.609Z,22.64
2023-09-27T01:57:07.561Z,22.64
2023-09-27T01:57:18.559Z,22.64
2023-09-27T01:57:29.558Z,22.64
2023-09-27T01:57:40.542Z,22.64
2023-09-27T01:57:51.558Z,22.64
2023-09-27T01:58:02.576Z,22.65
2023-09-27T01:58:13.579Z,22.65
2023-09-27T01:58:24.563Z,22.64
2023-09-27T01:58:35.583Z,22.64
2023-09-27T01:58:47.575Z,22.65
2023-09-27T01:58:58.588Z,22.64
2023-09-27T01:59:10.695Z,22.65
2023-09-27T01:59:21.648Z,22.64
2023-09-27T01:59:32.661Z,22.63
2023-09-27T01:59:43.549Z,22.65
2023-09-27T01:59:54.552Z,22.64
2023-09-27T02:00:05.627Z,22.64
2023-09-27T02:00:17.602Z,22.64
2023-09-27T02:00:28.596Z,22.65
2023-09-27T02:00:39.580Z,22.65
2023-09-27T02:00:50.604Z,22.65
2023-09-27T02:01:02.624Z,22.65
2023-09-27T02:01:13.597Z,22.65
2023-09-27T02:01:25.627Z,22.64
2023-09-27T02:01:37.696Z,22.64
2023-09-27T02:01:49.617Z,22.65
2023-09-27T02:02:00.606Z,22.65
2023-09-27T02:02:12.619Z,22.66
2023-09-27T02:02:23.582Z,22.66
2023-09-27T02:02:34.653Z,22.66
2023-09-27T02:02:45.610Z,22.67
2023-09-27T02:02:56.751Z,22.67
2023-09-27T02:03:08.685Z,22.66
2023-09-27T02:03:20.698Z,22.67
2023-09-27T02:03:32.697Z,22.65
2023-09-27T02:03:43.671Z,22.66
2023-09-27T02:03:54.691Z,22.67
2023-09-27T02:04:06.688Z,22.65
2023-09-27T02:04:17.613Z,22.66
2023-09-27T02:04:29.561Z,22.64
2023-09-27T02:04:40.635Z,22.64
2023-09-27T02:04:51.579Z,22.64
2023-09-27T02:05:02.602Z,22.64
2023-09-27T02:05:13.667Z,22.65
2023-09-27T02:05:24.677Z,22.64
2023-09-27T02:05:36.698Z,22.64
2023-09-27T02:05:48.691Z,22.64
2023-09-27T02:06:00.637Z,22.63
2023-09-27T02:06:11.564Z,22.65
2023-09-27T02:06:22.547Z,22.63
2023-09-27T02:06:33.571Z,22.63
2023-09-27T02:06:44.562Z,22.64
2023-09-27T02:06:55.558Z,22.62
2023-09-27T02:07:06.552Z,22.63
2023-09-27T02:07:17.550Z,22.64
2023-09-27T02:07:28.554Z,22.64
2023-09-27T02:07:39.550Z,22.64
2023-09-27T02:07:50.560Z,22.63
2023-09-27T02:08:01.598Z,22.64
2023-09-27T02:08:12.614Z,22.64
2023-09-27T02:08:24.645Z,22.63
2023-09-27T02:08:36.646Z,22.62
2023-09-27T02:08:47.583Z,22.63
2023-09-27T02:08:58.597Z,22.63
2023-09-27T02:09:09.592Z,22.63
2023-09-27T02:09:20.580Z,22.63
2023-09-27T02:09:31.576Z,22.63
2023-09-27T02:09:42.584Z,22.63
2023-09-27T02:09:53.575Z,22.62
2023-09-27T02:10:04.586Z,22.62
2023-09-27T02:10:15.596Z,22.63
2023-09-27T02:10:27.586Z,22.62
2023-09-27T02:10:38.583Z,22.63
2023-09-27T02:10:49.572Z,22.63
2023-09-27T02:11:00.593Z,22.63
2023-09-27T02:11:12.585Z,22.63
2023-09-27T02:11:23.581Z,22.62
2023-09-27T02:11:35.612Z,22.61
2023-09-27T02:11:46.625Z,22.63
2023-09-27T02:11:58.578Z,22.64
2023-09-27T02:12:09.559Z,22.64
2023-09-27T02:12:20.543Z,22.63
2023-09-27T02:12:31.569Z,22.64
2023-09-27T02:12:43.572Z,22.65
2023-09-27T02:12:55.591Z,22.64
2023-09-27T02:13:06.558Z,22.65
2023-09-27T02:13:17.553Z,22.65
2023-09-27T02:13:28.576Z,22.65
2023-09-27T02:13:39.557Z,22.65
2023-09-27T02:13:50.557Z,22.65
2023-09-27T02:14:01.560Z,22.64
2023-09-27T02:14:12.609Z,22.64
2023-09-27T02:14:23.701Z,22.64
2023-09-27T02:14:35.625Z,22.64
2023-09-27T02:14:47.603Z,22.64
2023-09-27T02:14:59.568Z,22.65
2023-09-27T02:15:10.579Z,22.64
2023-09-27T02:15:21.594Z,22.64
2023-09-27T02:15:32.578Z,22.65
2023-09-27T02:15:43.582Z,22.64
2023-09-27T02:15:55.657Z,22.65
2023-09-27T02:16:06.674Z,22.65
2023-09-27T02:16:17.602Z,22.65
2023-09-27T02:16:29.597Z,22.65
2023-09-27T02:16:41.566Z,22.66
2023-09-27T02:16:52.650Z,22.66
2023-09-27T02:17:03.590Z,22.66
2023-09-27T02:17:14.570Z,22.67
2023-09-27T02:17:25.623Z,22.68
2023-09-27T02:17:36.683Z,22.66
2023-09-27T02:17:47.618Z,22.67
2023-09-27T02:17:59.659Z,22.67
2023-09-27T02:18:10.591Z,22.67
2023-09-27T02:18:22.580Z,22.67
2023-09-27T02:18:33.610Z,22.67
2023-09-27T02:18:44.605Z,22.66
2023-09-27T02:18:55.808Z,22.67
2023-09-27T02:19:06.584Z,22.66
2023-09-27T02:19:17.593Z,22.65
2023-09-27T02:19:28.614Z,22.66
2023-09-27T02:19:40.583Z,22.65
2023-09-27T02:19:51.622Z,22.66
2023-09-27T02:20:03.655Z,22.65
2023-09-27T02:20:14.624Z,22.67
2023-09-27T02:20:25.641Z,22.66
2023-09-27T02:20:36.637Z,22.66
2023-09-27T02:20:48.595Z,22.66
2023-09-27T02:21:00.581Z,22.66
2023-09-27T02:21:11.585Z,22.65
2023-09-27T02:21:22.582Z,22.66
2023-09-27T02:21:33.589Z,22.65
2023-09-27T02:21:44.612Z,22.65
2023-09-27T02:21:56.599Z,22.65
2023-09-27T02:22:07.606Z,22.66
2023-09-27T02:22:18.602Z,22.64
2023-09-27T02:22:29.603Z,22.64
2023-09-27T02:22:40.613Z,22.63
2023-09-27T02:22:51.891Z,22.63
2023-09-27T02:23:03.725Z,22.63
2023-09-27T02:23:15.674Z,22.63
2023-09-27T02:23:27.624Z,22.63
2023-09-27T02:23:38.666Z,22.63
2023-09-27T02:23:50.600Z,22.62
2023-09-27T02:24:01.617Z,22.62
2023-09-27T02:24:13.601Z,22.63
2023-09-27T02:24:24.593Z,22.62
2023-09-27T02:24:36.589Z,22.62
2023-09-27T02:24:47.602Z,22.63
2023-09-27T02:24:58.611Z,22.63
2023-09-27T02:25:10.618Z,22.63
2023-09-27T02:25:22.605Z,22.63
2023-09-27T02:25:33.608Z,22.63